createdAt,value
2018-01-28T00:00:19.490Z,10.90
2018-01-28T00:03:29.507Z,12.95
2018-01-28T00:06:39.314Z,17.15
2018-01-28T00:09:49.404Z,15.38
2018-01-28T00:12:59.110Z,17.00
2018-01-28T00:16:09.088Z,18.75
2018-01-28T00:19:18.831Z,12.50
2018-01-28T00:22:28.619Z,14.10
2018-01-28T00:25:38.330Z,13.48
2018-01-28T00:28:48.196Z,18.50
2018-01-28T00:31:58.032Z,15.45
2018-01-28T00:35:08.074Z,13.73
2018-01-28T00:38:17.906Z,12.07
2018-01-28T00:41:28.045Z,14.77
2018-01-28T00:44:39.042Z,18.50
2018-01-28T00:47:48.876Z,14.20
2018-01-28T00:50:59.206Z,15.88
2018-01-28T00:54:09.641Z,14.95
2018-01-28T00:57:19.655Z,18.10
2018-01-28T01:00:30.305Z,16.12
2018-01-28T01:03:41.665Z,12.57
2018-01-28T01:06:52.180Z,13.18
2018-01-28T01:10:02.439Z,15.45
2018-01-28T01:13:12.788Z,15.30
2018-01-28T01:16:22.739Z,16.15
2018-01-28T01:19:32.480Z,14.45
2018-01-28T01:22:43.123Z,17.25
2018-01-28T01:25:53.202Z,15.95
2018-01-28T01:29:03.070Z,13.77
2018-01-28T01:32:12.902Z,13.82
2018-01-28T01:35:22.819Z,18.65
2018-01-28T01:38:32.711Z,16.30
2018-01-28T01:41:42.619Z,16.58
2018-01-28T01:44:52.317Z,16.52
2018-01-28T01:48:02.199Z,16.60
2018-01-28T01:51:12.671Z,16.83
2018-01-28T01:54:22.947Z,16.60
2018-01-28T01:57:33.290Z,15.25
2018-01-28T02:00:43.420Z,17.73
2018-01-28T02:03:53.664Z,19.70
2018-01-28T02:07:04.015Z,17.10
2018-01-28T02:10:14.432Z,15.30
2018-01-28T02:13:24.265Z,16.83
2018-01-28T02:16:34.309Z,15.52
2018-01-28T02:19:45.804Z,20.37
2018-01-28T02:22:55.247Z,16.58
2018-01-28T02:26:04.971Z,17.45
2018-01-28T02:29:14.860Z,17.70
2018-01-28T02:32:24.939Z,17.73
2018-01-28T02:35:34.744Z,14.25
2018-01-28T02:38:44.687Z,14.57
2018-01-28T02:41:54.630Z,14.63
2018-01-28T02:45:03.924Z,14.80
2018-01-28T02:48:14.247Z,15.63
2018-01-28T02:51:24.051Z,13.95
2018-01-28T02:54:34.698Z,13.62
2018-01-28T02:57:44.878Z,15.25
2018-01-28T03:00:54.747Z,15.13
2018-01-28T03:04:05.047Z,12.70
2018-01-28T03:07:14.970Z,14.95
2018-01-28T03:10:24.900Z,14.82
2018-01-28T03:13:34.786Z,17.08
2018-01-28T03:16:45.860Z,14.80
2018-01-28T03:19:56.051Z,16.15
2018-01-28T03:23:06.596Z,13.52
2018-01-28T03:26:17.059Z,16.90
2018-01-28T03:29:27.765Z,10.13
2018-01-28T03:32:37.834Z,18.55
2018-01-28T03:35:47.355Z,12.65
2018-01-28T03:38:57.360Z,18.58
2018-01-28T03:42:07.392Z,11.45
2018-01-28T03:45:17.347Z,16.00
2018-01-28T03:48:27.183Z,13.30
2018-01-28T03:51:36.948Z,10.52
2018-01-28T03:54:46.993Z,14.98
2018-01-28T03:57:56.843Z,16.30
2018-01-28T04:01:06.721Z,12.37
2018-01-28T04:04:15.935Z,11.82
2018-01-28T04:07:27.031Z,15.00
2018-01-28T04:10:37.170Z,14.25
2018-01-28T04:13:47.202Z,14.43
2018-01-28T04:16:57.086Z,18.90
2018-01-28T04:20:07.307Z,18.52
2018-01-28T04:23:18.170Z,12.82
2018-01-28T04:26:28.549Z,13.65
2018-01-28T04:29:38.710Z,13.80
2018-01-28T04:32:49.227Z,15.18
2018-01-28T04:35:59.758Z,15.35
2018-01-28T04:39:10.313Z,13.40
2018-01-28T04:42:21.027Z,13.70
2018-01-28T04:45:31.357Z,16.70
2018-01-28T04:48:41.904Z,15.48
2018-01-28T04:51:51.905Z,13.82
2018-01-28T04:55:01.770Z,14.40
2018-01-28T04:58:11.383Z,17.37
2018-01-28T05:01:22.011Z,13.38
2018-01-28T05:04:32.072Z,13.50
2018-01-28T05:07:41.774Z,13.45
2018-01-28T05:10:51.885Z,13.07
2018-01-28T05:14:01.782Z,16.55
2018-01-28T05:17:11.863Z,16.48
2018-01-28T05:20:21.637Z,11.43
2018-01-28T05:23:31.382Z,15.80
2018-01-28T05:26:41.273Z,15.73
2018-01-28T05:29:51.205Z,15.40
2018-01-28T05:33:01.331Z,12.55
2018-01-28T05:36:11.579Z,14.07
2018-01-28T05:39:21.799Z,11.18
2018-01-28T05:42:32.079Z,15.18
2018-01-28T05:45:43.486Z,12.95
2018-01-28T05:48:53.335Z,15.80
2018-01-28T05:52:03.977Z,13.62
2018-01-28T05:55:13.788Z,14.85
2018-01-28T05:58:23.610Z,15.48
2018-01-28T06:01:35.871Z,17.60
2018-01-28T06:04:46.107Z,11.90
2018-01-28T06:07:56.111Z,12.45
2018-01-28T06:11:05.897Z,14.02
2018-01-28T06:14:15.760Z,15.07
2018-01-28T06:17:25.687Z,12.73
2018-01-28T06:20:35.780Z,11.77
2018-01-28T06:23:46.298Z,14.35
2018-01-28T06:26:56.302Z,15.27
2018-01-28T06:30:06.423Z,13.77
2018-01-28T06:33:16.665Z,14.50
2018-01-28T06:36:26.414Z,11.18
2018-01-28T06:39:36.486Z,11.75
2018-01-28T06:42:46.510Z,11.00
2018-01-28T06:45:57.065Z,12.40
2018-01-28T06:49:07.376Z,12.23
2018-01-28T06:52:18.690Z,12.75
2018-01-28T06:55:28.752Z,12.40
2018-01-28T06:58:38.561Z,13.68
2018-01-28T07:01:48.390Z,12.40
2018-01-28T07:04:58.127Z,10.10
2018-01-28T07:08:08.771Z,11.65
2018-01-28T07:11:19.114Z,13.90
2018-01-28T07:14:29.018Z,13.38
2018-01-28T07:17:38.845Z,11.88
2018-01-28T07:20:49.396Z,10.32
2018-01-28T07:24:00.326Z,13.35
2018-01-28T07:27:10.462Z,9.93
2018-01-28T07:30:20.500Z,13.38
2018-01-28T07:33:30.431Z,13.30
2018-01-28T07:36:40.308Z,12.27
2018-01-28T07:39:50.257Z,10.60
2018-01-28T07:43:00.084Z,11.25
2018-01-28T07:46:09.869Z,11.30
2018-01-28T07:49:19.995Z,13.45
2018-01-28T07:52:30.033Z,12.30
2018-01-28T07:55:40.049Z,12.25
2018-01-28T07:58:50.287Z,9.45
2018-01-28T08:02:00.439Z,11.20
2018-01-28T08:05:10.679Z,10.85
2018-01-28T08:08:23.931Z,8.68
2018-01-28T08:15:14.866Z,10.63
2018-01-28T08:18:25.483Z,10.38
2018-01-28T08:21:34.969Z,9.63
2018-01-28T08:24:44.901Z,9.40
2018-01-28T08:31:42.491Z,10.93
2018-01-28T08:34:52.317Z,11.25
2018-01-28T08:38:02.582Z,11.07
2018-01-28T08:41:13.329Z,9.80
2018-01-28T08:44:23.532Z,9.60
2018-01-28T08:47:33.540Z,11.02
2018-01-28T08:50:43.422Z,9.77
2018-01-28T08:53:52.964Z,10.25
2018-01-28T08:57:03.082Z,19.30
2018-01-28T09:00:12.764Z,10.65
2018-01-28T09:03:22.606Z,8.80
2018-01-28T09:06:32.677Z,16.12
2018-01-28T09:09:42.389Z,29.58
2018-01-28T09:12:52.345Z,9.52
2018-01-28T09:16:02.708Z,9.93
2018-01-28T09:19:12.491Z,9.40
2018-01-28T09:22:22.319Z,11.15
2018-01-28T09:25:31.917Z,8.93
2018-01-28T09:28:41.820Z,11.77
2018-01-28T09:31:51.659Z,9.25
2018-01-28T09:35:01.452Z,10.15
2018-01-28T09:38:11.179Z,8.63
2018-01-28T09:41:21.703Z,9.02
2018-01-28T09:44:31.872Z,9.07
2018-01-28T09:47:42.483Z,8.07
2018-01-28T09:50:52.630Z,7.80
2018-01-28T09:54:02.678Z,8.50
2018-01-28T09:57:12.773Z,8.52
2018-01-28T10:00:22.581Z,8.10
2018-01-28T10:03:32.513Z,8.05
2018-01-28T10:06:43.197Z,10.00
2018-01-28T10:09:53.602Z,8.43
2018-01-28T10:13:03.228Z,7.60
2018-01-28T10:16:13.874Z,7.82
2018-01-28T10:19:23.927Z,10.35
2018-01-28T10:22:33.760Z,9.68
2018-01-28T10:25:43.733Z,8.80
2018-01-28T10:28:53.734Z,9.73
2018-01-28T10:32:04.010Z,7.90
2018-01-28T10:35:13.739Z,9.95
2018-01-28T10:38:25.091Z,8.27
2018-01-28T10:41:35.024Z,8.02
2018-01-28T10:44:45.597Z,9.18
2018-01-28T10:47:55.521Z,12.00
2018-01-28T10:51:05.416Z,7.62
2018-01-28T10:54:16.020Z,8.93
2018-01-28T10:57:25.719Z,10.18
2018-01-28T11:00:35.765Z,8.55
2018-01-28T11:03:45.496Z,11.35
2018-01-28T11:06:55.351Z,8.10
2018-01-28T11:10:05.279Z,8.82
2018-01-28T11:13:15.166Z,8.88
2018-01-28T11:16:24.886Z,8.55
2018-01-28T11:19:35.117Z,7.95
2018-01-28T11:22:44.686Z,8.27
2018-01-28T11:25:54.728Z,8.35
2018-01-28T11:29:05.372Z,8.77
2018-01-28T11:32:16.882Z,8.70
2018-01-28T11:35:26.855Z,7.97
2018-01-28T11:38:36.575Z,8.52
2018-01-28T11:41:46.485Z,8.05
2018-01-28T11:44:57.127Z,8.75
2018-01-28T11:48:07.194Z,6.32
2018-01-28T11:51:16.931Z,7.87
2018-01-28T11:54:26.603Z,8.10
2018-01-28T11:57:37.347Z,10.70
2018-01-28T12:00:47.103Z,8.10
2018-01-28T12:03:57.578Z,8.60
2018-01-28T12:07:07.569Z,7.40
2018-01-28T12:10:18.288Z,8.10
2018-01-28T12:13:28.914Z,7.32
2018-01-28T12:16:39.290Z,8.40
2018-01-28T12:19:49.136Z,7.50
2018-01-28T12:22:59.674Z,7.55
2018-01-28T12:26:10.515Z,7.45
2018-01-28T12:29:21.290Z,10.48
2018-01-28T12:32:30.947Z,9.75
2018-01-28T12:35:40.954Z,8.45
2018-01-28T12:38:50.755Z,7.18
2018-01-28T12:42:00.458Z,7.60
2018-01-28T12:45:10.202Z,9.25
2018-01-28T12:48:21.709Z,7.20
2018-01-28T12:51:33.375Z,7.55
2018-01-28T12:54:43.970Z,8.73
2018-01-28T12:57:54.700Z,9.48
2018-01-28T13:01:04.802Z,14.65
2018-01-28T13:04:15.342Z,7.95
2018-01-28T13:07:26.231Z,8.85
2018-01-28T13:10:36.502Z,8.27
2018-01-28T13:13:46.514Z,8.35
2018-01-28T13:16:57.121Z,8.50
2018-01-28T13:20:07.007Z,8.82
2018-01-28T13:23:17.566Z,7.93
2018-01-28T13:26:28.338Z,7.85
2018-01-28T13:29:38.490Z,7.07
2018-01-28T13:32:49.138Z,7.50
2018-01-28T13:35:59.210Z,7.75
2018-01-28T13:39:09.949Z,7.55
2018-01-28T13:42:19.977Z,7.87
2018-01-28T13:45:30.658Z,8.55
2018-01-28T13:48:41.499Z,7.62
2018-01-28T13:51:51.420Z,8.45
2018-01-28T13:55:01.933Z,9.88
2018-01-28T13:58:11.858Z,9.77
2018-01-28T14:01:23.268Z,7.40
2018-01-28T14:04:33.392Z,7.35
2018-01-28T14:07:44.150Z,9.32
2018-01-28T14:10:54.806Z,7.57
2018-01-28T14:14:05.402Z,7.57
2018-01-28T14:17:15.338Z,8.63
2018-01-28T14:20:25.224Z,7.50
2018-01-28T14:23:35.086Z,8.07
2018-01-28T14:26:44.900Z,7.47
2018-01-28T14:29:55.515Z,8.13
2018-01-28T14:33:05.371Z,8.07
2018-01-28T14:36:15.993Z,7.15
2018-01-28T14:39:25.804Z,8.65
2018-01-28T14:42:36.426Z,8.73
2018-01-28T14:45:45.815Z,8.50
2018-01-28T14:48:56.176Z,8.52
2018-01-28T14:52:05.995Z,7.18
2018-01-28T14:55:15.686Z,8.38
2018-01-28T14:58:26.368Z,7.32
2018-01-28T15:01:36.486Z,7.97
2018-01-28T15:04:46.503Z,7.60
2018-01-28T15:07:56.262Z,7.60
2018-01-28T15:11:07.073Z,7.40
2018-01-28T15:14:29.273Z,8.20
2018-01-28T15:17:39.570Z,9.00
2018-01-28T15:20:49.298Z,10.52
2018-01-28T15:23:59.985Z,8.07
2018-01-28T15:27:09.967Z,7.50
2018-01-28T15:30:20.494Z,7.05
2018-01-28T15:33:30.331Z,7.60
2018-01-28T15:36:40.194Z,7.43
2018-01-28T15:39:50.357Z,8.48
2018-01-28T15:43:00.667Z,6.75
2018-01-28T15:46:11.097Z,12.07
2018-01-28T15:49:21.666Z,10.25
2018-01-28T15:52:31.934Z,8.95
2018-01-28T15:55:42.219Z,8.23
2018-01-28T15:58:51.880Z,8.07
2018-01-28T16:02:01.667Z,6.57
2018-01-28T16:05:11.560Z,7.60
2018-01-28T16:08:21.344Z,8.13
2018-01-28T16:11:31.302Z,8.52
2018-01-28T16:14:41.939Z,9.32
2018-01-28T16:17:52.398Z,10.57
2018-01-28T16:21:03.299Z,10.07
2018-01-28T16:24:13.095Z,10.25
2018-01-28T16:27:22.918Z,8.40
2018-01-28T16:30:32.849Z,8.55
2018-01-28T16:33:43.482Z,7.15
2018-01-28T16:36:54.139Z,7.82
2018-01-28T16:40:03.775Z,7.97
2018-01-28T16:43:14.640Z,8.73
2018-01-28T16:46:24.764Z,12.18
2018-01-28T16:49:35.417Z,8.85
2018-01-28T16:52:45.590Z,9.48
2018-01-28T16:55:56.201Z,9.43
2018-01-28T16:59:06.080Z,7.82
2018-01-28T17:02:16.116Z,10.07
2018-01-28T17:05:26.944Z,9.57
2018-01-28T17:08:37.303Z,10.38
2018-01-28T17:11:47.928Z,8.85
2018-01-28T17:14:58.591Z,11.55
2018-01-28T17:18:09.243Z,8.82
2018-01-28T17:21:19.233Z,7.75
2018-01-28T17:24:29.048Z,8.40
2018-01-28T17:27:39.002Z,8.70
2018-01-28T17:30:48.809Z,7.80
2018-01-28T17:33:59.428Z,8.65
2018-01-28T17:37:09.376Z,10.55
2018-01-28T17:40:19.051Z,10.02
2018-01-28T17:43:28.744Z,8.00
2018-01-28T17:46:38.711Z,7.85
2018-01-28T17:49:49.432Z,9.23
2018-01-28T17:52:59.974Z,8.35
2018-01-28T17:56:10.087Z,9.82
2018-01-28T17:59:20.688Z,9.05
2018-01-28T18:02:31.323Z,8.82
2018-01-28T18:05:41.196Z,7.87
2018-01-28T18:08:52.549Z,9.05
2018-01-28T18:12:02.966Z,8.10
2018-01-28T18:15:12.886Z,7.70
2018-01-28T18:18:22.664Z,9.07
2018-01-28T18:21:32.061Z,9.00
2018-01-28T18:24:42.467Z,7.35
2018-01-28T18:27:52.096Z,9.68
2018-01-28T18:31:02.180Z,10.43
2018-01-28T18:34:11.975Z,9.10
2018-01-28T18:37:21.795Z,9.35
2018-01-28T18:40:31.694Z,9.82
2018-01-28T18:43:43.095Z,8.85
2018-01-28T18:46:53.073Z,9.52
2018-01-28T18:50:03.013Z,9.32
2018-01-28T18:53:12.724Z,8.80
2018-01-28T18:56:23.535Z,8.25
2018-01-28T18:59:33.815Z,8.63
2018-01-28T19:02:43.733Z,8.13
2018-01-28T19:05:53.513Z,8.60
2018-01-28T19:09:03.286Z,9.27
2018-01-28T19:12:14.052Z,7.72
2018-01-28T19:15:24.742Z,15.20
2018-01-28T19:18:34.896Z,12.25
2018-01-28T19:21:44.751Z,8.50
2018-01-28T19:24:54.628Z,9.02
2018-01-28T19:28:04.436Z,7.70
2018-01-28T19:31:14.248Z,9.77
2018-01-28T19:34:24.997Z,8.32
2018-01-28T19:37:35.090Z,8.23
2018-01-28T19:40:45.013Z,8.70
2018-01-28T19:43:55.560Z,8.25
2018-01-28T19:47:05.678Z,7.65
2018-01-28T19:50:15.611Z,12.32
2018-01-28T19:53:26.405Z,7.80
2018-01-28T19:56:36.248Z,9.80
2018-01-28T19:59:46.037Z,7.95
2018-01-28T20:02:56.673Z,8.00
2018-01-28T20:06:07.442Z,7.45
2018-01-28T20:09:17.986Z,8.25
2018-01-28T20:12:28.635Z,7.20
2018-01-28T20:15:39.223Z,7.87
2018-01-28T20:18:49.944Z,9.43
2018-01-28T20:21:59.793Z,7.80
2018-01-28T20:25:10.617Z,7.82
2018-01-28T20:28:21.206Z,8.70
2018-01-28T20:31:31.896Z,8.75
2018-01-28T20:34:42.476Z,7.75
2018-01-28T20:37:52.528Z,8.23
2018-01-28T20:41:03.247Z,8.30
2018-01-28T20:44:13.135Z,8.40
2018-01-28T20:47:23.382Z,8.27
2018-01-28T20:50:33.152Z,8.57
2018-01-28T20:53:43.120Z,8.38
2018-01-28T20:56:53.059Z,10.00
2018-01-28T21:00:03.368Z,8.50
2018-01-28T21:03:13.185Z,9.70
2018-01-28T21:06:23.698Z,8.27
2018-01-28T21:09:33.482Z,8.82
2018-01-28T21:12:43.015Z,9.27
2018-01-28T21:15:53.589Z,8.27
2018-01-28T21:19:03.517Z,8.25
2018-01-28T21:22:13.306Z,8.55
2018-01-28T21:25:23.133Z,8.60
2018-01-28T21:28:34.051Z,7.45
2018-01-28T21:31:44.972Z,9.50
2018-01-28T21:34:55.558Z,8.43
2018-01-28T21:38:06.053Z,8.80
2018-01-28T21:41:16.889Z,9.60
2018-01-28T21:44:27.416Z,8.45
2018-01-28T21:47:36.976Z,9.15
2018-01-28T21:50:47.365Z,8.70
2018-01-28T21:53:57.616Z,9.82
2018-01-28T21:57:09.503Z,9.77
2018-01-28T22:00:20.217Z,9.55
2018-01-28T22:03:30.960Z,9.05
2018-01-28T22:06:40.929Z,9.27
2018-01-28T22:09:51.479Z,9.55
2018-01-28T22:13:02.253Z,8.82
2018-01-28T22:16:13.265Z,8.98
2018-01-28T22:19:24.175Z,7.35
2018-01-28T22:22:35.387Z,9.75
2018-01-28T22:25:45.693Z,13.00
2018-01-28T22:28:55.474Z,9.90
2018-01-28T22:32:05.385Z,9.95
2018-01-28T22:35:17.084Z,10.18
2018-01-28T22:38:27.304Z,10.30
2018-01-28T22:41:37.900Z,11.38
2018-01-28T22:44:48.407Z,9.60
2018-01-28T22:47:59.536Z,9.77
2018-01-28T22:51:10.427Z,10.60
2018-01-28T22:54:20.652Z,10.93
2018-01-28T22:57:31.502Z,8.77
2018-01-28T23:00:41.739Z,10.25
2018-01-28T23:03:52.679Z,9.73
2018-01-28T23:07:04.139Z,9.18
2018-01-28T23:10:14.202Z,9.27
2018-01-28T23:13:24.458Z,9.60
2018-01-28T23:16:35.384Z,9.95
2018-01-28T23:19:46.689Z,9.75
2018-01-28T23:22:56.952Z,8.65
2018-01-28T23:26:07.051Z,11.15
2018-01-28T23:29:17.636Z,8.93
2018-01-28T23:32:28.250Z,9.77
2018-01-28T23:35:37.794Z,10.95
2018-01-28T23:38:47.466Z,8.32
2018-01-28T23:41:57.514Z,9.48
2018-01-28T23:45:06.902Z,8.80
2018-01-28T23:48:16.870Z,10.07
2018-01-28T23:51:27.841Z,9.32
2018-01-28T23:54:38.443Z,9.10
2018-01-28T23:57:48.417Z,9.40
